createdAt,value
2023-01-11T00:01:23.906Z,2.15
2023-01-11T00:04:09.178Z,1.40
2023-01-11T00:06:54.547Z,1.98
2023-01-11T00:09:39.823Z,1.80
2023-01-11T00:12:25.065Z,1.70
2023-01-11T00:15:11.565Z,1.45
2023-01-11T00:17:57.639Z,1.88
2023-01-11T00:20:42.712Z,1.80
2023-01-11T00:23:27.871Z,1.88
2023-01-11T00:26:13.670Z,1.60
2023-01-11T00:28:58.851Z,1.90
2023-01-11T00:31:44.145Z,1.90
2023-01-11T00:34:29.581Z,1.55
2023-01-11T00:37:14.904Z,2.35
2023-01-11T00:40:00.143Z,1.27
2023-01-11T00:43:04.083Z,1.77
2023-01-11T00:46:18.177Z,1.77
2023-01-11T00:49:03.511Z,1.40
2023-01-11T00:51:48.770Z,1.80
2023-01-11T00:54:35.268Z,1.70
2023-01-11T00:57:20.921Z,1.85
2023-01-11T01:00:06.856Z,1.90
2023-01-11T01:02:52.222Z,2.15
2023-01-11T01:05:38.738Z,1.70
2023-01-11T01:08:24.103Z,1.50
2023-01-11T01:11:09.658Z,1.65
2023-01-11T01:14:13.611Z,1.40
2023-01-11T01:17:07.423Z,2.05
2023-01-11T01:19:52.597Z,1.70
2023-01-11T01:22:38.060Z,2.38
2023-01-11T01:25:23.724Z,2.03
2023-01-11T01:28:08.834Z,1.60
2023-01-11T01:30:54.185Z,1.42
2023-01-11T01:33:39.908Z,2.20
2023-01-11T01:36:25.172Z,1.88
2023-01-11T01:39:12.843Z,1.80
2023-01-11T01:41:58.967Z,1.83
2023-01-11T01:45:03.639Z,1.83
2023-01-11T01:47:59.190Z,2.28
2023-01-11T01:50:48.875Z,1.92
2023-01-11T01:53:45.208Z,2.88
2023-01-11T01:56:34.517Z,1.90
2023-01-11T01:59:21.825Z,2.45
2023-01-11T02:02:07.135Z,1.88
2023-01-11T02:04:56.273Z,2.20
2023-01-11T02:07:44.377Z,2.15
2023-01-11T02:10:30.003Z,2.80
2023-01-11T02:13:15.523Z,1.92
2023-01-11T02:16:09.901Z,3.78
2023-01-11T02:18:56.551Z,2.50
2023-01-11T02:22:00.732Z,2.15
2023-01-11T02:24:51.916Z,1.92
2023-01-11T02:27:47.364Z,1.92
2023-01-11T02:30:57.781Z,1.88
2023-01-11T02:33:47.742Z,2.47
2023-01-11T02:36:46.042Z,2.33
2023-01-11T02:39:37.295Z,2.28
2023-01-11T02:42:57.458Z,1.90
2023-01-11T02:46:13.049Z,2.08
2023-01-11T02:49:16.371Z,2.67
2023-01-11T02:54:57.572Z,1.90
2023-01-11T02:57:44.734Z,2.15
2023-01-11T03:00:30.421Z,2.53
2023-01-11T03:03:19.547Z,2.35
2023-01-11T03:06:21.150Z,2.60
2023-01-11T03:09:20.211Z,2.42
2023-01-11T03:12:50.938Z,2.72
2023-01-11T03:16:13.842Z,3.20
2023-01-11T03:19:36.593Z,2.67
2023-01-11T03:22:50.436Z,2.78
2023-01-11T03:26:17.595Z,3.35
2023-01-11T03:29:19.696Z,2.80
2023-01-11T03:32:14.213Z,2.58
2023-01-11T03:35:15.766Z,2.80
2023-01-11T03:38:13.009Z,2.95
2023-01-11T03:41:05.411Z,2.80
2023-01-11T03:43:54.232Z,2.92
2023-01-11T03:47:04.072Z,2.72
2023-01-11T03:50:06.879Z,2.97
2023-01-11T03:52:54.771Z,2.78
2023-01-11T03:55:44.392Z,2.67
2023-01-11T03:58:29.875Z,3.28
2023-01-11T04:01:15.536Z,2.65
2023-01-11T04:04:00.631Z,2.58
2023-01-11T04:06:46.135Z,2.50
2023-01-11T04:09:31.537Z,2.80
2023-01-11T04:12:17.067Z,2.78
2023-01-11T04:15:03.207Z,2.75
2023-01-11T04:17:48.313Z,2.88
2023-01-11T04:20:35.991Z,3.08
2023-01-11T04:23:21.285Z,3.08
2023-01-11T04:26:06.961Z,2.72
2023-01-11T04:28:54.195Z,3.58
2023-01-11T04:31:39.808Z,3.20
2023-01-11T04:34:25.332Z,3.70
2023-01-11T04:37:11.954Z,3.28
2023-01-11T04:39:57.040Z,3.30
2023-01-11T04:42:42.477Z,3.20
2023-01-11T04:45:29.333Z,3.70
2023-01-11T04:48:14.581Z,3.75
2023-01-11T04:51:00.016Z,3.35
2023-01-11T04:53:48.345Z,3.75
2023-01-11T04:56:33.700Z,4.32
2023-01-11T04:59:18.751Z,3.60
2023-01-11T05:02:04.262Z,3.80
2023-01-11T05:04:49.516Z,3.83
2023-01-11T05:07:34.958Z,4.35
2023-01-11T05:10:21.114Z,4.50
2023-01-11T05:13:06.691Z,4.25
2023-01-11T05:15:52.008Z,4.47
2023-01-11T05:18:45.876Z,5.03
2023-01-11T05:21:34.946Z,5.30
2023-01-11T05:24:20.367Z,4.25
2023-01-11T05:27:06.011Z,4.45
2023-01-11T05:29:51.181Z,4.20
2023-01-11T05:32:36.674Z,4.35
2023-01-11T05:35:21.942Z,4.28
2023-01-11T05:38:07.483Z,3.60
2023-01-11T05:41:00.625Z,4.60
2023-01-11T05:44:06.401Z,4.47
2023-01-11T05:46:51.727Z,3.95
2023-01-11T05:49:37.161Z,4.75
2023-01-11T05:52:22.643Z,6.10
2023-01-11T05:55:08.439Z,5.70
2023-01-11T05:57:53.999Z,5.00
2023-01-11T06:00:39.199Z,4.68
2023-01-11T06:03:26.129Z,6.00
2023-01-11T06:06:11.949Z,5.18
2023-01-11T06:08:57.035Z,5.03
2023-01-11T06:11:42.412Z,5.35
2023-01-11T06:14:27.773Z,4.72
2023-01-11T06:17:13.233Z,5.50
2023-01-11T06:19:58.830Z,4.13
2023-01-11T06:22:44.152Z,4.68
2023-01-11T06:25:30.390Z,5.32
2023-01-11T06:28:15.488Z,5.07
2023-01-11T06:31:01.451Z,5.15
2023-01-11T06:33:47.501Z,4.75
2023-01-11T06:36:32.550Z,4.85
2023-01-11T06:39:18.718Z,5.00
2023-01-11T06:42:03.759Z,4.88
2023-01-11T06:44:49.103Z,4.35
2023-01-11T06:47:34.481Z,4.00
2023-01-11T06:50:20.884Z,4.43
2023-01-11T06:53:06.736Z,5.57
2023-01-11T06:55:52.958Z,4.55
2023-01-11T06:58:38.476Z,5.22
2023-01-11T07:01:26.037Z,4.60
2023-01-11T07:04:11.268Z,4.53
2023-01-11T07:06:56.810Z,5.00
2023-01-11T07:09:42.387Z,4.93
2023-01-11T07:12:27.690Z,4.18
2023-01-11T07:15:13.195Z,4.70
2023-01-11T07:17:59.798Z,4.70
2023-01-11T07:20:44.889Z,4.47
2023-01-11T07:23:30.347Z,4.00
2023-01-11T07:26:17.278Z,4.45
2023-01-11T07:29:02.821Z,4.05
2023-01-11T07:31:48.281Z,4.10
2023-01-11T07:34:34.020Z,4.43
2023-01-11T07:37:28.076Z,4.85
2023-01-11T07:40:16.323Z,4.97
2023-01-11T07:43:18.249Z,4.72
2023-01-11T07:46:03.645Z,4.25
2023-01-11T07:48:49.007Z,6.03
2023-01-11T07:51:34.384Z,4.63
2023-01-11T07:54:19.932Z,4.45
2023-01-11T07:57:06.154Z,4.57
2023-01-11T07:59:51.368Z,5.88
2023-01-11T08:02:36.929Z,21.90
2023-01-11T08:05:22.277Z,11.52
2023-01-11T08:08:08.227Z,8.45
2023-01-11T08:11:12.132Z,12.32
2023-01-11T08:14:15.928Z,9.32
2023-01-11T08:17:01.349Z,9.50
2023-01-11T08:19:46.933Z,8.32
2023-01-11T08:22:32.359Z,7.25
2023-01-11T08:25:17.935Z,6.60
2023-01-11T08:28:05.322Z,6.13
2023-01-11T08:30:50.563Z,6.82
2023-01-11T08:33:35.924Z,5.70
2023-01-11T08:36:21.184Z,5.82
2023-01-11T08:39:06.724Z,6.45
2023-01-11T08:41:51.873Z,5.68
2023-01-11T08:44:37.326Z,5.45
2023-01-11T08:47:23.161Z,6.50
2023-01-11T08:50:09.604Z,5.93
2023-01-11T08:52:54.722Z,5.72
2023-01-11T08:55:41.698Z,5.45
2023-01-11T08:58:27.046Z,5.15
2023-01-11T09:01:12.468Z,5.90
2023-01-11T09:03:57.559Z,8.73
2023-01-11T09:06:42.981Z,5.75
2023-01-11T09:09:28.293Z,6.30
2023-01-11T09:12:14.484Z,6.57
2023-01-11T09:14:59.798Z,5.60
2023-01-11T09:17:47.439Z,5.15
2023-01-11T09:20:32.784Z,5.10
2023-01-11T09:23:17.950Z,5.00
2023-01-11T09:26:03.279Z,5.15
2023-01-11T09:28:48.862Z,5.15
2023-01-11T09:31:34.027Z,5.18
2023-01-11T09:34:20.904Z,4.90
2023-01-11T09:37:07.006Z,4.47
2023-01-11T09:39:52.589Z,4.60
2023-01-11T09:42:43.028Z,4.53
2023-01-11T09:45:31.065Z,4.45
2023-01-11T09:48:28.420Z,4.53
2023-01-11T09:51:16.331Z,3.97
2023-01-11T09:54:05.853Z,3.78
2023-01-11T09:57:18.490Z,3.97
2023-01-11T10:00:23.949Z,4.22
2023-01-11T10:03:19.465Z,4.10
2023-01-11T10:06:10.580Z,4.10
2023-01-11T10:18:28.731Z,3.80
2023-01-11T10:19:37.623Z,4.20
2023-01-11T10:22:36.405Z,4.25
2023-01-11T10:25:30.326Z,3.97
2023-01-11T10:28:43.038Z,4.32
2023-01-11T10:31:47.741Z,3.70
2023-01-11T10:35:00.604Z,3.53
2023-01-11T10:38:07.821Z,3.78
2023-01-11T10:41:03.293Z,3.60
2023-01-11T10:44:04.931Z,4.28
2023-01-11T10:46:53.726Z,4.38
2023-01-11T10:49:43.712Z,3.88
2023-01-11T10:52:54.227Z,3.85
2023-01-11T10:56:02.047Z,3.67
2023-01-11T10:59:15.812Z,3.33
2023-01-11T11:02:43.369Z,2.80
2023-01-11T11:05:46.752Z,6.63
2023-01-11T11:08:44.505Z,3.00
2023-01-11T11:11:38.258Z,2.88
2023-01-11T11:14:23.614Z,3.00
2023-01-11T11:17:16.617Z,2.92
